Sao Jose do Egito, Brazil
Current Conditions -  °F | °C
As of 11:00 AM on Friday 28 Nov 2014 (Local Time) from SBKG Reporting Station
Broken Clouds Broken Clouds  
Wind Chill: 84°   Ceiling: 4000
Heat Index: 86°   Visibility: 6mi
Dew Point: 64°   Wind: 17mph
Humidity: 51%   Direction: 120°ESE
Pressure: 29.97"   Gusts: NA
Location:  7.48°S, 37.27°W
Report Text: SBKG 281400Z 12015KT 9999 BKN040 29/18 Q1015
Loading
Personal Weather Stations






























Interactive Weather Map New forecast layout! Learn more

10-Day Weather Forecast

Advertisements
Track Severe Weather on mobile